KOWP

William R Pogue Municipal Airport

Sand Springs, Oklahoma, USA
METAR KOWP 172015Z AUTO 04006KT 10SM CLR 22/06 A3039 RMK AO2 T02180064
Observed Flight Rules
Oct-17 @ 20:15 UTC (14 minutes ago) Visual Flight Rules
Wind Visibility Clouds
40° at 6 knots 10 miles
  • Clear skies
Temperatures Readings
Current 22°C / 72°F
Dewpoint 6°C / 43°F
Humidity 36%
Altimeter 30.39" Hg
Pressure 1029 hPa
Elevation 272
METAR KOWP 172015Z AUTO 04006KT 10SM CLR 22/06 A3039 RMK AO2 T02180064
Observed Flight Rules
Oct-17 @ 20:15 UTC
(14 minutes ago)
VFR
Wind Visibility
40° at 6 knots 10 miles
Clouds
  • Clear skies
Temperature Dewpoint
22°C / 72°F 6°C / 43°F
Humidity Altimeter Pressure
36% 30.39" Hg 1029 hPa